sensor_id;sensor_type;location;lat;lon;timestamp;pressure;altitude;pressure_sealevel;temperature;humidity
49311;BME280;35177;45.900;5.946;2022-11-20T00:00:52;97348.56;;;1.17;100.00
49311;BME280;35177;45.900;5.946;2022-11-20T00:03:17;97349.00;;;1.04;100.00
49311;BME280;35177;45.900;5.946;2022-11-20T00:05:43;97352.78;;;0.98;100.00
49311;BME280;35177;45.900;5.946;2022-11-20T00:08:08;97361.28;;;1.01;100.00
49311;BME280;35177;45.900;5.946;2022-11-20T00:10:37;97368.03;;;0.93;100.00
49311;BME280;35177;45.900;5.946;2022-11-20T00:13:02;97362.72;;;0.82;100.00
49311;BME280;35177;45.900;5.946;2022-11-20T00:15:28;97367.03;;;0.77;100.00
49311;BME280;35177;45.900;5.946;2022-11-20T00:17:53;97368.03;;;0.66;100.00
49311;BME280;35177;45.900;5.946;2022-11-20T00:20:18;97367.97;;;0.61;100.00
49311;BME280;35177;45.900;5.946;2022-11-20T00:22:44;97383.38;;;0.45;100.00
49311;BME280;35177;45.900;5.946;2022-11-20T00:25:09;97366.53;;;0.53;100.00
49311;BME280;35177;45.900;5.946;2022-11-20T00:27:34;97383.94;;;0.47;100.00
49311;BME280;35177;45.900;5.946;2022-11-20T00:30:00;97379.28;;;0.47;100.00
49311;BME280;35177;45.900;5.946;2022-11-20T00:32:25;97386.19;;;0.55;100.00
49311;BME280;35177;45.900;5.946;2022-11-20T00:34:50;97389.91;;;0.44;100.00
49311;BME280;35177;45.900;5.946;2022-11-20T00:37:16;97396.19;;;0.44;100.00
49311;BME280;35177;45.900;5.946;2022-11-20T00:39:41;97406.81;;;0.41;100.00
49311;BME280;35177;45.900;5.946;2022-11-20T00:42:06;97405.09;;;0.35;100.00
49311;BME280;35177;45.900;5.946;2022-11-20T00:44:32;97400.44;;;0.35;100.00
49311;BME280;35177;45.900;5.946;2022-11-20T00:46:57;97409.06;;;0.49;100.00
49311;BME280;35177;45.900;5.946;2022-11-20T00:49:22;97415.84;;;0.24;100.00
49311;BME280;35177;45.900;5.946;2022-11-20T00:51:47;97414.47;;;0.22;100.00
49311;BME280;35177;45.900;5.946;2022-11-20T00:54:13;97412.63;;;0.27;100.00
49311;BME280;35177;45.900;5.946;2022-11-20T00:56:38;97416.94;;;0.23;100.00
49311;BME280;35177;45.900;5.946;2022-11-20T00:59:03;97414.41;;;0.17;100.00
49311;BME280;35177;45.900;5.946;2022-11-20T01:01:29;97408.72;;;0.01;100.00
49311;BME280;35177;45.900;5.946;2022-11-20T01:03:55;97415.84;;;0.02;100.00
49311;BME280;35177;45.900;5.946;2022-11-20T01:06:25;97412.50;;;0.17;100.00
49311;BME280;35177;45.900;5.946;2022-11-20T01:08:52;97420.75;;;0.00;100.00
49311;BME280;35177;45.900;5.946;2022-11-20T01:11:21;97415.47;;;-0.24;100.00
49311;BME280;35177;45.900;5.946;2022-11-20T01:13:47;97415.06;;;-0.15;100.00
49311;BME280;35177;45.900;5.946;2022-11-20T01:18:42;97421.91;;;-0.13;100.00
49311;BME280;35177;45.900;5.946;2022-11-20T01:21:12;97426.97;;;-0.22;100.00
49311;BME280;35177;45.900;5.946;2022-11-20T01:23:38;97431.16;;;-0.14;100.00
49311;BME280;35177;45.900;5.946;2022-11-20T01:26:05;97435.16;;;-0.22;100.00
49311;BME280;35177;45.900;5.946;2022-11-20T01:28:31;97433.69;;;-0.29;100.00
49311;BME280;35177;45.900;5.946;2022-11-20T01:30:56;97430.94;;;-0.29;100.00
49311;BME280;35177;45.900;5.946;2022-11-20T01:33:22;97430.44;;;-0.26;100.00
49311;BME280;35177;45.900;5.946;2022-11-20T01:35:47;97433.81;;;-0.19;100.00
49311;BME280;35177;45.900;5.946;2022-11-20T01:38:12;97427.13;;;-0.28;100.00
49311;BME280;35177;45.900;5.946;2022-11-20T01:40:38;97436.88;;;-0.33;100.00
49311;BME280;35177;45.900;5.946;2022-11-20T01:43:21;97437.63;;;-0.37;100.00
49311;BME280;35177;45.900;5.946;2022-11-20T01:48:35;97433.69;;;-0.29;100.00
49311;BME280;35177;45.900;5.946;2022-11-20T01:51:02;97427.06;;;-0.34;100.00
49311;BME280;35177;45.900;5.946;2022-11-20T01:53:29;97429.56;;;-0.49;100.00
49311;BME280;35177;45.900;5.946;2022-11-20T01:55:56;97437.28;;;-0.58;100.00
49311;BME280;35177;45.900;5.946;2022-11-20T01:58:24;97441.84;;;-0.63;100.00
49311;BME280;35177;45.900;5.946;2022-11-20T02:00:50;97442.44;;;-0.61;100.00
49311;BME280;35177;45.900;5.946;2022-11-20T02:03:16;97442.94;;;-0.47;100.00
49311;BME280;35177;45.900;5.946;2022-11-20T02:08:37;97442.66;;;-0.12;100.00
49311;BME280;35177;45.900;5.946;2022-11-20T02:11:03;97448.50;;;-0.03;100.00
49311;BME280;35177;45.900;5.946;2022-11-20T02:13:28;97449.91;;;-0.01;100.00
49311;BME280;35177;45.900;5.946;2022-11-20T02:16:13;97444.06;;;-0.09;100.00
49311;BME280;35177;45.900;5.946;2022-11-20T02:18:39;97449.50;;;-0.09;100.00
49311;BME280;35177;45.900;5.946;2022-11-20T02:24:01;97453.56;;;-0.12;100.00
49311;BME280;35177;45.900;5.946;2022-11-20T02:26:27;97456.78;;;-0.32;100.00
49311;BME280;35177;45.900;5.946;2022-11-20T02:28:53;97465.00;;;-0.49;100.00
49311;BME280;35177;45.900;5.946;2022-11-20T02:31:19;97460.63;;;-0.50;100.00
49311;BME280;35177;45.900;5.946;2022-11-20T02:33:44;97465.63;;;-0.76;100.00
49311;BME280;35177;45.900;5.946;2022-11-20T02:36:11;97462.41;;;-0.56;100.00
49311;BME280;35177;45.900;5.946;2022-11-20T02:38:37;97461.53;;;-0.61;100.00
49311;BME280;35177;45.900;5.946;2022-11-20T02:41:03;97458.59;;;-0.72;100.00
49311;BME280;35177;45.900;5.946;2022-11-20T02:43:28;97458.78;;;-1.07;100.00
49311;BME280;35177;45.900;5.946;2022-11-20T02:45:53;97463.53;;;-1.15;100.00
49311;BME280;35177;45.900;5.946;2022-11-20T02:48:19;97457.91;;;-0.96;100.00
49311;BME280;35177;45.900;5.946;2022-11-20T02:50:44;97452.91;;;-0.87;100.00
49311;BME280;35177;45.900;5.946;2022-11-20T02:53:09;97458.88;;;-1.02;100.00
49311;BME280;35177;45.900;5.946;2022-11-20T02:55:35;97455.25;;;-1.08;100.00
49311;BME280;35177;45.900;5.946;2022-11-20T02:58:01;97460.19;;;-1.05;100.00
49311;BME280;35177;45.900;5.946;2022-11-20T03:00:26;97459.75;;;-1.14;100.00
49311;BME280;35177;45.900;5.946;2022-11-20T03:02:51;97464.22;;;-1.07;100.00
49311;BME280;35177;45.900;5.946;2022-11-20T03:05:17;97455.19;;;-1.25;100.00
49311;BME280;35177;45.900;5.946;2022-11-20T03:07:43;97456.56;;;-1.10;100.00
49311;BME280;35177;45.900;5.946;2022-11-20T03:10:08;97452.25;;;-0.77;100.00
49311;BME280;35177;45.900;5.946;2022-11-20T03:12:33;97461.41;;;-0.67;100.00
49311;BME280;35177;45.900;5.946;2022-11-20T03:14:59;97456.72;;;-0.71;100.00
49311;BME280;35177;45.900;5.946;2022-11-20T03:17:24;97458.19;;;-0.63;100.00
49311;BME280;35177;45.900;5.946;2022-11-20T03:19:49;97462.34;;;-0.44;100.00
49311;BME280;35177;45.900;5.946;2022-11-20T03:22:14;97465.06;;;-0.44;100.00
49311;BME280;35177;45.900;5.946;2022-11-20T03:24:40;97466.06;;;-0.50;100.00
49311;BME280;35177;45.900;5.946;2022-11-20T03:27:05;97475.78;;;-0.37;100.00
49311;BME280;35177;45.900;5.946;2022-11-20T03:29:30;97470.00;;;-0.24;100.00
49311;BME280;35177;45.900;5.946;2022-11-20T03:31:56;97473.00;;;-0.25;100.00
49311;BME280;35177;45.900;5.946;2022-11-20T03:34:21;97473.91;;;-0.20;100.00
49311;BME280;35177;45.900;5.946;2022-11-20T03:36:46;97475.53;;;-0.19;100.00
49311;BME280;35177;45.900;5.946;2022-11-20T03:39:11;97480.19;;;-0.19;100.00
49311;BME280;35177;45.900;5.946;2022-11-20T03:41:38;97482.41;;;-0.16;100.00
49311;BME280;35177;45.900;5.946;2022-11-20T03:44:04;97484.38;;;-0.28;100.00
49311;BME280;35177;45.900;5.946;2022-11-20T03:46:30;97481.66;;;-0.28;100.00
49311;BME280;35177;45.900;5.946;2022-11-20T03:48:56;97489.09;;;-0.41;100.00
49311;BME280;35177;45.900;5.946;2022-11-20T03:51:22;97487.28;;;-0.35;100.00
49311;BME280;35177;45.900;5.946;2022-11-20T03:53:49;97490.09;;;-0.47;100.00
49311;BME280;35177;45.900;5.946;2022-11-20T03:56:15;97488.88;;;-0.39;100.00
49311;BME280;35177;45.900;5.946;2022-11-20T03:58:42;97488.53;;;-0.43;100.00
49311;BME280;35177;45.900;5.946;2022-11-20T04:01:11;97493.41;;;-0.28;100.00
49311;BME280;35177;45.900;5.946;2022-11-20T04:03:37;97493.91;;;-0.31;100.00
49311;BME280;35177;45.900;5.946;2022-11-20T04:06:07;97493.06;;;-0.49;100.00
49311;BME280;35177;45.900;5.946;2022-11-20T04:08:33;97490.94;;;-0.46;100.00
49311;BME280;35177;45.900;5.946;2022-11-20T04:11:40;97499.03;;;-0.52;100.00
49311;BME280;35177;45.900;5.946;2022-11-20T04:13:48;97503.78;;;-0.42;100.00
49311;BME280;35177;45.900;5.946;2022-11-20T04:16:13;97495.13;;;-0.39;100.00
49311;BME280;35177;45.900;5.946;2022-11-20T04:18:39;97498.94;;;-0.40;100.00
49311;BME280;35177;45.900;5.946;2022-11-20T04:21:04;97499.69;;;-0.27;100.00
49311;BME280;35177;45.900;5.946;2022-11-20T04:23:30;97505.31;;;-0.34;100.00
49311;BME280;35177;45.900;5.946;2022-11-20T04:26:00;97504.41;;;-0.23;100.00
49311;BME280;35177;45.900;5.946;2022-11-20T04:28:26;97504.41;;;-0.23;100.00
49311;BME280;35177;45.900;5.946;2022-11-20T04:30:51;97509.78;;;-0.28;100.00
49311;BME280;35177;45.900;5.946;2022-11-20T04:33:16;97511.25;;;-0.20;100.00
49311;BME280;35177;45.900;5.946;2022-11-20T04:35:48;97506.13;;;-0.17;100.00
49311;BME280;35177;45.900;5.946;2022-11-20T04:38:13;97502.31;;;0.02;100.00
49311;BME280;35177;45.900;5.946;2022-11-20T04:40:39;97501.41;;;-0.04;100.00
49311;BME280;35177;45.900;5.946;2022-11-20T04:43:04;97499.19;;;-0.07;100.00
49311;BME280;35177;45.900;5.946;2022-11-20T04:45:29;97485.97;;;0.02;100.00
49311;BME280;35177;45.900;5.946;2022-11-20T04:47:54;97493.22;;;0.13;100.00
49311;BME280;35177;45.900;5.946;2022-11-20T04:50:20;97488.09;;;0.17;100.00
49311;BME280;35177;45.900;5.946;2022-11-20T04:52:45;97491.28;;;0.13;100.00
49311;BME280;35177;45.900;5.946;2022-11-20T04:55:10;97502.31;;;0.19;100.00
49311;BME280;35177;45.900;5.946;2022-11-20T04:57:36;97510.72;;;0.17;100.00
49311;BME280;35177;45.900;5.946;2022-11-20T05:00:01;97500.59;;;0.12;100.00
49311;BME280;35177;45.900;5.946;2022-11-20T05:02:26;97504.25;;;0.23;100.00
49311;BME280;35177;45.900;5.946;2022-11-20T05:04:51;97497.25;;;0.27;100.00
49311;BME280;35177;45.900;5.946;2022-11-20T05:07:17;97506.00;;;0.29;100.00
49311;BME280;35177;45.900;5.946;2022-11-20T05:09:42;97501.38;;;0.30;100.00
49311;BME280;35177;45.900;5.946;2022-11-20T05:12:08;97504.44;;;0.34;100.00
49311;BME280;35177;45.900;5.946;2022-11-20T05:14:33;97505.56;;;0.38;100.00
49311;BME280;35177;45.900;5.946;2022-11-20T05:16:59;97504.50;;;0.39;100.00
49311;BME280;35177;45.900;5.946;2022-11-20T05:19:24;97503.75;;;0.43;100.00
49311;BME280;35177;45.900;5.946;2022-11-20T05:21:50;97511.31;;;0.19;100.00
49311;BME280;35177;45.900;5.946;2022-11-20T05:24:15;97508.56;;;0.19;100.00
49311;BME280;35177;45.900;5.946;2022-11-20T05:26:40;97504.84;;;0.25;100.00
49311;BME280;35177;45.900;5.946;2022-11-20T05:29:05;97506.31;;;0.33;100.00
49311;BME280;35177;45.900;5.946;2022-11-20T05:31:31;97503.03;;;0.31;100.00
49311;BME280;35177;45.900;5.946;2022-11-20T05:33:56;97500.09;;;0.38;100.00
49311;BME280;35177;45.900;5.946;2022-11-20T05:36:22;97500.69;;;0.40;100.00
49311;BME280;35177;45.900;5.946;2022-11-20T05:38:47;97500.16;;;0.43;100.00
49311;BME280;35177;45.900;5.946;2022-11-20T05:41:13;97500.16;;;0.43;100.00
49311;BME280;35177;45.900;5.946;2022-11-20T05:43:39;97499.84;;;0.39;100.00
49311;BME280;35177;45.900;5.946;2022-11-20T05:46:06;97500.75;;;0.45;100.00
49311;BME280;35177;45.900;5.946;2022-11-20T05:48:32;97506.22;;;0.45;100.00
49311;BME280;35177;45.900;5.946;2022-11-20T05:50:58;97513.91;;;0.48;100.00
49311;BME280;35177;45.900;5.946;2022-11-20T05:53:24;97508.50;;;0.53;100.00
49311;BME280;35177;45.900;5.946;2022-11-20T05:55:56;97507.94;;;0.51;100.00
49311;BME280;35177;45.900;5.946;2022-11-20T05:58:21;97507.75;;;0.58;100.00
49311;BME280;35177;45.900;5.946;2022-11-20T06:00:46;97518.16;;;0.61;100.00
49311;BME280;35177;45.900;5.946;2022-11-20T06:03:11;97516.50;;;0.60;100.00
49311;BME280;35177;45.900;5.946;2022-11-20T06:05:37;97511.34;;;0.41;100.00
49311;BME280;35177;45.900;5.946;2022-11-20T06:08:02;97509.78;;;0.06;100.00
49311;BME280;35177;45.900;5.946;2022-11-20T06:10:27;97509.81;;;0.28;100.00
49311;BME280;35177;45.900;5.946;2022-11-20T06:12:53;97508.56;;;0.36;100.00
49311;BME280;35177;45.900;5.946;2022-11-20T06:15:18;97501.69;;;0.34;100.00
49311;BME280;35177;45.900;5.946;2022-11-20T06:17:43;97506.91;;;0.35;100.00
49311;BME280;35177;45.900;5.946;2022-11-20T06:20:09;97504.38;;;0.28;100.00
49311;BME280;35177;45.900;5.946;2022-11-20T06:22:34;97508.66;;;0.24;100.00
49311;BME280;35177;45.900;5.946;2022-11-20T06:24:59;97508.72;;;0.29;100.00
49311;BME280;35177;45.900;5.946;2022-11-20T06:27:25;97507.41;;;0.32;100.00
49311;BME280;35177;45.900;5.946;2022-11-20T06:29:50;97497.69;;;0.41;100.00
49311;BME280;35177;45.900;5.946;2022-11-20T06:32:16;97507.16;;;0.34;100.00
49311;BME280;35177;45.900;5.946;2022-11-20T06:34:41;97506.84;;;0.30;100.00
49311;BME280;35177;45.900;5.946;2022-11-20T06:37:06;97495.94;;;0.13;100.00
49311;BME280;35177;45.900;5.946;2022-11-20T06:39:31;97496.88;;;0.02;100.00
49311;BME280;35177;45.900;5.946;2022-11-20T06:41:57;97497.19;;;0.05;100.00
49311;BME280;35177;45.900;5.946;2022-11-20T06:44:22;97499.34;;;-0.14;100.00
49311;BME280;35177;45.900;5.946;2022-11-20T06:46:47;97507.47;;;-0.02;100.00
49311;BME280;35177;45.900;5.946;2022-11-20T06:49:13;97503.31;;;-0.05;100.00
49311;BME280;35177;45.900;5.946;2022-11-20T06:51:38;97503.06;;;-0.03;100.00
49311;BME280;35177;45.900;5.946;2022-11-20T06:54:03;97501.94;;;-0.07;100.00
49311;BME280;35177;45.900;5.946;2022-11-20T06:56:29;97498.22;;;-0.18;100.00
49311;BME280;35177;45.900;5.946;2022-11-20T06:58:54;97506.06;;;-0.22;100.00
49311;BME280;35177;45.900;5.946;2022-11-20T07:01:19;97510.66;;;-0.22;100.00
49311;BME280;35177;45.900;5.946;2022-11-20T07:03:45;97515.47;;;-0.12;100.00
49311;BME280;35177;45.900;5.946;2022-11-20T07:06:10;97510.84;;;-0.12;100.00
49311;BME280;35177;45.900;5.946;2022-11-20T07:08:36;97520.84;;;-0.18;100.00
49311;BME280;35177;45.900;5.946;2022-11-20T07:11:02;97518.94;;;-0.17;100.00
49311;BME280;35177;45.900;5.946;2022-11-20T07:13:28;97516.13;;;-0.22;100.00
49311;BME280;35177;45.900;5.946;2022-11-20T07:15:54;97517.63;;;-0.31;100.00
49311;BME280;35177;45.900;5.946;2022-11-20T07:18:19;97513.97;;;-0.37;100.00
49311;BME280;35177;45.900;5.946;2022-11-20T07:20:44;97527.94;;;-0.34;100.00
49311;BME280;35177;45.900;5.946;2022-11-20T07:23:10;97524.78;;;-0.42;100.00
49311;BME280;35177;45.900;5.946;2022-11-20T07:25:35;97523.81;;;-0.36;100.00
49311;BME280;35177;45.900;5.946;2022-11-20T07:28:01;97516.88;;;-0.27;100.00
49311;BME280;35177;45.900;5.946;2022-11-20T07:30:27;97515.22;;;-0.11;100.00
49311;BME280;35177;45.900;5.946;2022-11-20T07:32:52;97526.09;;;0.23;100.00
49311;BME280;35177;45.900;5.946;2022-11-20T07:35:18;97528.69;;;0.13;100.00
49311;BME280;35177;45.900;5.946;2022-11-20T07:37:43;97533.56;;;0.11;100.00
49311;BME280;35177;45.900;5.946;2022-11-20T07:40:10;97531.91;;;0.10;100.00
49311;BME280;35177;45.900;5.946;2022-11-20T07:42:46;97529.94;;;0.22;100.00
49311;BME280;35177;45.900;5.946;2022-11-20T07:45:12;97528.31;;;0.43;100.00
49311;BME280;35177;45.900;5.946;2022-11-20T07:47:37;97529.28;;;0.54;100.00
49311;BME280;35177;45.900;5.946;2022-11-20T07:50:02;97531.59;;;0.45;100.00
49311;BME280;35177;45.900;5.946;2022-11-20T07:52:28;97527.84;;;0.52;100.00
49311;BME280;35177;45.900;5.946;2022-11-20T07:54:54;97535.34;;;0.39;100.00
49311;BME280;35177;45.900;5.946;2022-11-20T07:57:19;97541.66;;;0.23;100.00
49311;BME280;35177;45.900;5.946;2022-11-20T07:59:44;97535.75;;;0.48;100.00
49311;BME280;35177;45.900;5.946;2022-11-20T08:02:11;97546.47;;;0.55;100.00
49311;BME280;35177;45.900;5.946;2022-11-20T08:04:36;97533.66;;;0.77;100.00
49311;BME280;35177;45.900;5.946;2022-11-20T08:07:01;97538.25;;;0.94;100.00
49311;BME280;35177;45.900;5.946;2022-11-20T08:09:27;97530.44;;;1.03;100.00
49311;BME280;35177;45.900;5.946;2022-11-20T08:11:53;97538.03;;;1.01;100.00
49311;BME280;35177;45.900;5.946;2022-11-20T08:14:37;97539.53;;;1.08;100.00
49311;BME280;35177;45.900;5.946;2022-11-20T08:17:02;97538.38;;;1.04;100.00
49311;BME280;35177;45.900;5.946;2022-11-20T08:19:27;97541.19;;;1.09;100.00
49311;BME280;35177;45.900;5.946;2022-11-20T08:21:53;97539.59;;;1.41;100.00
49311;BME280;35177;45.900;5.946;2022-11-20T08:24:18;97538.09;;;1.55;100.00
49311;BME280;35177;45.900;5.946;2022-11-20T08:26:43;97536.41;;;1.82;100.00
49311;BME280;35177;45.900;5.946;2022-11-20T08:29:09;97529.22;;;2.03;100.00
49311;BME280;35177;45.900;5.946;2022-11-20T08:31:34;97530.19;;;2.24;100.00
49311;BME280;35177;45.900;5.946;2022-11-20T08:33:59;97525.78;;;2.18;100.00
49311;BME280;35177;45.900;5.946;2022-11-20T08:36:25;97530.97;;;2.57;100.00
49311;BME280;35177;45.900;5.946;2022-11-20T08:38:51;97521.84;;;2.99;100.00
49311;BME280;35177;45.900;5.946;2022-11-20T08:41:17;97519.81;;;3.68;100.00
49311;BME280;35177;45.900;5.946;2022-11-20T08:43:56;97512.94;;;4.23;100.00
49311;BME280;35177;45.900;5.946;2022-11-20T08:46:23;97518.81;;;5.02;100.00
49311;BME280;35177;45.900;5.946;2022-11-20T08:48:48;97520.00;;;5.86;100.00
49311;BME280;35177;45.900;5.946;2022-11-20T08:51:14;97515.59;;;6.78;100.00
49311;BME280;35177;45.900;5.946;2022-11-20T08:53:40;97517.94;;;7.14;100.00
49311;BME280;35177;45.900;5.946;2022-11-20T08:56:05;97520.16;;;7.55;100.00
49311;BME280;35177;45.900;5.946;2022-11-20T08:58:31;97518.63;;;8.20;100.00
49311;BME280;35177;45.900;5.946;2022-11-20T09:00:56;97497.16;;;8.78;100.00
49311;BME280;35177;45.900;5.946;2022-11-20T09:03:22;97501.78;;;8.97;100.00
49311;BME280;35177;45.900;5.946;2022-11-20T09:05:47;97508.13;;;8.83;100.00
49311;BME280;35177;45.900;5.946;2022-11-20T09:08:13;97508.75;;;8.80;100.00
49311;BME280;35177;45.900;5.946;2022-11-20T09:10:38;97516.28;;;9.58;100.00
49311;BME280;35177;45.900;5.946;2022-11-20T09:13:04;97513.34;;;9.41;100.00
49311;BME280;35177;45.900;5.946;2022-11-20T09:15:30;97515.22;;;9.18;100.00
49311;BME280;35177;45.900;5.946;2022-11-20T09:17:56;97518.03;;;9.54;100.00
49311;BME280;35177;45.900;5.946;2022-11-20T09:20:23;97521.41;;;9.51;100.00
49311;BME280;35177;45.900;5.946;2022-11-20T09:22:48;97512.72;;;10.17;100.00
49311;BME280;35177;45.900;5.946;2022-11-20T09:25:13;97521.69;;;10.14;100.00
49311;BME280;35177;45.900;5.946;2022-11-20T09:27:39;97507.28;;;10.57;100.00
49311;BME280;35177;45.900;5.946;2022-11-20T09:30:06;97516.84;;;10.28;100.00
49311;BME280;35177;45.900;5.946;2022-11-20T09:32:32;97514.91;;;10.74;100.00
49311;BME280;35177;45.900;5.946;2022-11-20T09:34:57;97522.78;;;10.90;100.00
49311;BME280;35177;45.900;5.946;2022-11-20T09:37:22;97519.47;;;11.11;100.00
49311;BME280;35177;45.900;5.946;2022-11-20T09:39:47;97521.84;;;11.35;100.00
49311;BME280;35177;45.900;5.946;2022-11-20T09:50:43;97531.09;;;11.21;100.00
49311;BME280;35177;45.900;5.946;2022-11-20T09:55:08;97528.66;;;11.20;100.00
49311;BME280;35177;45.900;5.946;2022-11-20T09:57:36;97527.47;;;11.70;100.00
49311;BME280;35177;45.900;5.946;2022-11-20T10:00:04;97537.94;;;10.07;100.00
49311;BME280;35177;45.900;5.946;2022-11-20T10:02:42;97536.47;;;10.32;100.00
49311;BME280;35177;45.900;5.946;2022-11-20T10:05:15;97540.84;;;9.88;100.00
49311;BME280;35177;45.900;5.946;2022-11-20T10:08:01;97531.59;;;10.83;100.00
49311;BME280;35177;45.900;5.946;2022-11-20T10:18:08;97542.16;;;10.72;100.00
49311;BME280;35177;45.900;5.946;2022-11-20T10:25:51;97539.88;;;10.29;100.00
49311;BME280;35177;45.900;5.946;2022-11-20T10:30:45;97542.56;;;10.57;100.00
49311;BME280;35177;45.900;5.946;2022-11-20T10:33:17;97537.97;;;10.52;100.00
49311;BME280;35177;45.900;5.946;2022-11-20T10:35:45;97543.38;;;10.57;100.00
49311;BME280;35177;45.900;5.946;2022-11-20T10:38:24;97540.31;;;10.68;100.00
49311;BME280;35177;45.900;5.946;2022-11-20T10:40:52;97542.84;;;10.78;100.00
49311;BME280;35177;45.900;5.946;2022-11-20T10:43:28;97542.44;;;10.39;100.00
49311;BME280;35177;45.900;5.946;2022-11-20T10:46:08;97540.22;;;10.27;100.00
49311;BME280;35177;45.900;5.946;2022-11-20T10:48:35;97538.44;;;10.54;100.00
49311;BME280;35177;45.900;5.946;2022-11-20T10:56:00;97522.81;;;9.76;100.00
49311;BME280;35177;45.900;5.946;2022-11-20T11:01:13;97513.47;;;10.32;100.00
49311;BME280;35177;45.900;5.946;2022-11-20T11:03:39;97513.56;;;9.81;100.00
49311;BME280;35177;45.900;5.946;2022-11-20T11:06:09;97499.47;;;9.91;100.00
49311;BME280;35177;45.900;5.946;2022-11-20T11:08:37;97496.47;;;10.02;100.00
49311;BME280;35177;45.900;5.946;2022-11-20T11:11:07;97496.03;;;9.21;100.00
49311;BME280;35177;45.900;5.946;2022-11-20T11:13:35;97494.63;;;9.60;100.00
49311;BME280;35177;45.900;5.946;2022-11-20T11:16:00;97487.50;;;9.45;100.00
49311;BME280;35177;45.900;5.946;2022-11-20T11:18:26;97484.16;;;9.57;100.00
49311;BME280;35177;45.900;5.946;2022-11-20T11:20:52;97481.63;;;10.06;100.00
49311;BME280;35177;45.900;5.946;2022-11-20T11:23:56;97467.19;;;9.73;100.00
49311;BME280;35177;45.900;5.946;2022-11-20T11:26:20;97465.00;;;9.84;100.00
49311;BME280;35177;45.900;5.946;2022-11-20T11:28:59;97458.13;;;9.81;100.00
49311;BME280;35177;45.900;5.946;2022-11-20T11:31:26;97450.16;;;9.79;100.00
49311;BME280;35177;45.900;5.946;2022-11-20T11:33:51;97442.50;;;9.85;100.00
49311;BME280;35177;45.900;5.946;2022-11-20T11:36:18;97438.53;;;10.00;100.00
49311;BME280;35177;45.900;5.946;2022-11-20T11:38:44;97429.13;;;9.64;100.00
49311;BME280;35177;45.900;5.946;2022-11-20T11:41:12;97418.25;;;9.68;100.00
49311;BME280;35177;45.900;5.946;2022-11-20T11:43:48;97418.38;;;9.63;100.00
49311;BME280;35177;45.900;5.946;2022-11-20T11:46:33;97419.81;;;10.06;100.00
49311;BME280;35177;45.900;5.946;2022-11-20T11:49:21;97419.00;;;9.83;100.00
49311;BME280;35177;45.900;5.946;2022-11-20T11:54:24;97407.00;;;9.87;100.00
49311;BME280;35177;45.900;5.946;2022-11-20T11:56:51;97398.03;;;9.90;100.00
49311;BME280;35177;45.900;5.946;2022-11-20T11:59:23;97401.94;;;9.67;100.00
49311;BME280;35177;45.900;5.946;2022-11-20T12:02:11;97391.72;;;9.53;100.00
49311;BME280;35177;45.900;5.946;2022-11-20T12:07:15;97378.34;;;9.10;100.00
49311;BME280;35177;45.900;5.946;2022-11-20T12:09:47;97381.97;;;9.33;100.00
49311;BME280;35177;45.900;5.946;2022-11-20T12:12:20;97380.25;;;9.23;100.00
49311;BME280;35177;45.900;5.946;2022-11-20T12:14:48;97370.56;;;9.57;100.00
49311;BME280;35177;45.900;5.946;2022-11-20T12:17:16;97361.59;;;9.15;100.00
49311;BME280;35177;45.900;5.946;2022-11-20T12:19:42;97365.13;;;8.93;100.00
49311;BME280;35177;45.900;5.946;2022-11-20T12:24:57;97360.22;;;9.26;100.00
49311;BME280;35177;45.900;5.946;2022-11-20T12:27:39;97348.94;;;9.37;100.00
49311;BME280;35177;45.900;5.946;2022-11-20T12:30:09;97349.38;;;9.53;100.00
49311;BME280;35177;45.900;5.946;2022-11-20T12:38:13;97343.19;;;9.33;100.00
49311;BME280;35177;45.900;5.946;2022-11-20T12:40:57;97344.06;;;9.42;100.00
49311;BME280;35177;45.900;5.946;2022-11-20T12:48:50;97333.38;;;9.27;100.00
49311;BME280;35177;45.900;5.946;2022-11-20T12:53:56;97345.00;;;9.60;100.00
49311;BME280;35177;45.900;5.946;2022-11-20T12:59:21;97354.81;;;9.89;100.00
49311;BME280;35177;45.900;5.946;2022-11-20T13:04:34;97356.72;;;9.35;100.00
49311;BME280;35177;45.900;5.946;2022-11-20T13:07:08;97355.91;;;9.34;100.00
49311;BME280;35177;45.900;5.946;2022-11-20T13:09:42;97346.78;;;9.33;100.00
49311;BME280;35177;45.900;5.946;2022-11-20T13:12:10;97347.41;;;9.76;100.00
49311;BME280;35177;45.900;5.946;2022-11-20T13:17:07;97346.16;;;9.59;100.00
49311;BME280;35177;45.900;5.946;2022-11-20T13:19:36;97350.31;;;9.48;100.00
49311;BME280;35177;45.900;5.946;2022-11-20T13:22:01;97338.53;;;9.20;100.00
49311;BME280;35177;45.900;5.946;2022-11-20T13:24:28;97334.44;;;9.17;100.00
49311;BME280;35177;45.900;5.946;2022-11-20T13:27:05;97336.88;;;9.19;100.00
49311;BME280;35177;45.900;5.946;2022-11-20T13:29:42;97317.94;;;9.12;100.00
49311;BME280;35177;45.900;5.946;2022-11-20T13:34:50;97319.84;;;8.89;100.00
49311;BME280;35177;45.900;5.946;2022-11-20T13:37:32;97320.38;;;8.77;100.00
49311;BME280;35177;45.900;5.946;2022-11-20T13:40:11;97318.69;;;8.90;100.00
49311;BME280;35177;45.900;5.946;2022-11-20T13:42:43;97307.81;;;9.07;100.00
49311;BME280;35177;45.900;5.946;2022-11-20T13:45:23;97302.00;;;9.18;100.00
49311;BME280;35177;45.900;5.946;2022-11-20T13:47:49;97295.53;;;9.22;100.00
49311;BME280;35177;45.900;5.946;2022-11-20T13:50:14;97301.63;;;9.10;100.00
49311;BME280;35177;45.900;5.946;2022-11-20T13:52:52;97290.81;;;9.23;100.00
49311;BME280;35177;45.900;5.946;2022-11-20T13:55:31;97295.28;;;9.10;100.00
49311;BME280;35177;45.900;5.946;2022-11-20T13:58:11;97286.66;;;9.11;100.00
49311;BME280;35177;45.900;5.946;2022-11-20T14:00:44;97295.81;;;9.12;100.00
49311;BME280;35177;45.900;5.946;2022-11-20T14:03:20;97292.00;;;9.08;100.00
49311;BME280;35177;45.900;5.946;2022-11-20T14:05:56;97295.91;;;9.07;100.00
49311;BME280;35177;45.900;5.946;2022-11-20T14:08:39;97298.31;;;9.22;100.00
49311;BME280;35177;45.900;5.946;2022-11-20T14:11:17;97290.38;;;9.29;100.00
49311;BME280;35177;45.900;5.946;2022-11-20T14:13:52;97286.34;;;9.13;100.00